Time;durP1;ratioP1;P1;durP2;ratioP2;P2;SDS_P1;SDS_P2;PMS_P1;PMS_P2;Temp;Humidity;BMP_temperature;BMP_pressure;BME280_temperature;BME280_humidity;BME280_pressure;Samples;Min_cycle;Max_cycle;Signal;HPM_P1;HPM_P2
2024/02/24 00:01:54;;;;;;;3.88;2.53;;;;;;;;;;5018785;28;20068;-92
2024/02/24 00:04:21;;;;;;;4.97;2.25;;;;;;;;;;5033777;28;20072;-92
2024/02/24 00:06:48;;;;;;;3.88;1.90;;;;;;;;;;5026796;28;20050;-92
2024/02/24 00:09:15;;;;;;;5.22;2.50;;;;;;;;;;5006945;28;20076;-92
2024/02/24 00:11:43;;;;;;;5.30;2.10;;;;;;;;;;5005793;28;20054;-92
2024/02/24 00:14:10;;;;;;;3.85;2.40;;;;;;;;;;5007059;28;20041;-92
2024/02/24 00:16:38;;;;;;;2.38;2.05;;;;;;;;;;5009141;28;20064;-93
2024/02/24 00:19:05;;;;;;;5.38;2.00;;;;;;;;;;5008019;28;20460;-93
2024/02/24 00:21:32;;;;;;;5.25;1.83;;;;;;;;;;5018036;28;20061;-93
2024/02/24 00:24:01;;;;;;;5.82;1.75;;;;;;;;;;5008726;28;20061;-93
2024/02/24 00:26:28;;;;;;;1.98;1.70;;;;;;;;;;5005951;28;20116;-93
2024/02/24 00:28:55;;;;;;;3.03;1.63;;;;;;;;;;5005030;28;20049;-94
2024/02/24 00:31:22;;;;;;;3.63;1.63;;;;;;;;;;5008088;28;20049;-94
2024/02/24 00:33:50;;;;;;;6.28;2.08;;;;;;;;;;5008603;28;20124;-94
2024/02/24 00:36:18;;;;;;;6.32;2.20;;;;;;;;;;5000197;28;20510;-94
2024/02/24 00:38:45;;;;;;;3.63;2.08;;;;;;;;;;5013284;28;20069;-94
2024/02/24 00:41:13;;;;;;;4.00;1.98;;;;;;;;;;5005455;28;20046;-94
2024/02/24 00:43:40;;;;;;;5.13;2.00;;;;;;;;;;5011444;28;20472;-94
2024/02/24 00:46:08;;;;;;;3.97;1.65;;;;;;;;;;5013200;28;20041;-93
2024/02/24 00:48:35;;;;;;;2.58;1.75;;;;;;;;;;5004803;28;20108;-93
2024/02/24 00:51:02;;;;;;;9.85;2.83;;;;;;;;;;5013398;28;20045;-92
2024/02/24 00:53:29;;;;;;;4.88;2.10;;;;;;;;;;5008227;28;20128;-93
2024/02/24 00:55:57;;;;;;;6.55;2.35;;;;;;;;;;5008474;28;20059;-93
2024/02/24 00:58:24;;;;;;;4.00;2.38;;;;;;;;;;5005129;28;20664;-93
2024/02/24 01:00:51;;;;;;;3.28;2.25;;;;;;;;;;5005537;28;20050;-93
2024/02/24 01:03:19;;;;;;;4.70;2.47;;;;;;;;;;5007547;28;20065;-95
2024/02/24 01:05:46;;;;;;;4.90;4.43;;;;;;;;;;5008182;28;20073;-93
2024/02/24 01:08:13;;;;;;;2.92;2.72;;;;;;;;;;5000320;28;20053;-93
2024/02/24 01:10:40;;;;;;;4.50;2.20;;;;;;;;;;5008120;28;20045;-93
2024/02/24 01:13:08;;;;;;;4.78;2.25;;;;;;;;;;5008165;28;20140;-93
2024/02/24 01:15:35;;;;;;;3.53;2.40;;;;;;;;;;5009527;28;20123;-93
2024/02/24 01:18:02;;;;;;;5.18;2.75;;;;;;;;;;5017118;28;20391;-93
2024/02/24 01:20:30;;;;;;;5.18;2.70;;;;;;;;;;5034817;28;20046;-92
2024/02/24 01:22:59;;;;;;;8.85;5.80;;;;;;;;;;5019268;28;20049;-94
2024/02/24 01:25:27;;;;;;;6.32;4.45;;;;;;;;;;5006862;28;20045;-93
2024/02/24 01:27:54;;;;;;;7.45;3.10;;;;;;;;;;5022384;28;20052;-93
2024/02/24 01:30:24;;;;;;;2.50;2.20;;;;;;;;;;5018765;28;20058;-93
2024/02/24 01:32:52;;;;;;;12.18;6.60;;;;;;;;;;5012583;28;20077;-92
2024/02/24 01:35:19;;;;;;;5.80;3.10;;;;;;;;;;5015556;28;20150;-93
2024/02/24 01:37:46;;;;;;;4.18;3.10;;;;;;;;;;5007774;28;20054;-92
2024/02/24 01:40:14;;;;;;;3.83;2.90;;;;;;;;;;5009661;28;20557;-93
2024/02/24 01:42:44;;;;;;;7.18;3.47;;;;;;;;;;5019084;28;20046;-92
2024/02/24 01:45:12;;;;;;;4.68;2.25;;;;;;;;;;5015545;28;20054;-92
2024/02/24 01:47:40;;;;;;;6.53;2.15;;;;;;;;;;5007260;28;20058;-92
2024/02/24 01:50:12;;;;;;;4.15;2.10;;;;;;;;;;5008813;28;20101;-92
2024/02/24 01:52:46;;;;;;;3.50;2.28;;;;;;;;;;5010993;28;20054;-92
2024/02/24 01:55:13;;;;;;;4.53;2.17;;;;;;;;;;5010828;28;20050;-92
2024/02/24 01:57:45;;;;;;;6.75;3.15;;;;;;;;;;5019817;28;20061;-91
2024/02/24 02:00:26;;;;;;;4.32;1.90;;;;;;;;;;5012155;28;20050;-92
2024/02/24 02:02:57;;;;;;;5.55;3.67;;;;;;;;;;5021727;28;20148;-92
2024/02/24 02:05:25;;;;;;;7.25;5.40;;;;;;;;;;5023620;28;20050;-92
2024/02/24 02:07:52;;;;;;;5.20;3.10;;;;;;;;;;5007119;28;20065;-91
2024/02/24 02:10:19;;;;;;;7.43;3.13;;;;;;;;;;5010036;28;20077;-92
2024/02/24 02:12:46;;;;;;;5.32;2.38;;;;;;;;;;5010974;28;20649;-91
2024/02/24 02:15:14;;;;;;;5.30;3.60;;;;;;;;;;5008754;28;20072;-91
2024/02/24 02:17:41;;;;;;;3.70;2.60;;;;;;;;;;5007191;28;20050;-91
2024/02/24 02:20:09;;;;;;;6.93;2.40;;;;;;;;;;5016404;28;20509;-91
2024/02/24 02:22:36;;;;;;;10.82;9.40;;;;;;;;;;5010705;28;20474;-91
2024/02/24 02:25:04;;;;;;;4.32;3.30;;;;;;;;;;5018908;28;20054;-92
2024/02/24 02:27:31;;;;;;;4.53;3.10;;;;;;;;;;5009341;28;20046;-90
2024/02/24 02:30:00;;;;;;;5.47;2.40;;;;;;;;;;5007555;28;20085;-91
2024/02/24 02:32:28;;;;;;;3.30;2.28;;;;;;;;;;5006201;28;20054;-89
2024/02/24 02:34:56;;;;;;;4.80;2.17;;;;;;;;;;5023137;28;20046;-90
2024/02/24 02:37:23;;;;;;;4.22;2.45;;;;;;;;;;5026948;28;20475;-91
2024/02/24 02:39:50;;;;;;;3.03;2.47;;;;;;;;;;4999373;28;20105;-90
2024/02/24 02:42:17;;;;;;;5.22;2.88;;;;;;;;;;5021754;28;20046;-91
2024/02/24 02:44:44;;;;;;;5.80;2.50;;;;;;;;;;5015594;28;20081;-91
2024/02/24 02:47:12;;;;;;;6.00;3.90;;;;;;;;;;5014791;28;20050;-91
2024/02/24 02:49:49;;;;;;;5.45;3.17;;;;;;;;;;5010609;28;20137;-90
2024/02/24 02:52:16;;;;;;;3.70;2.00;;;;;;;;;;5002589;28;20053;-90
2024/02/24 02:54:44;;;;;;;2.97;2.15;;;;;;;;;;4998357;28;20120;-91
2024/02/24 02:57:11;;;;;;;4.57;2.15;;;;;;;;;;5013116;28;20050;-90
2024/02/24 02:59:38;;;;;;;6.78;2.63;;;;;;;;;;5006835;28;20100;-90
2024/02/24 03:02:05;;;;;;;5.40;2.60;;;;;;;;;;4998250;28;20057;-91
2024/02/24 03:04:33;;;;;;;2.75;2.00;;;;;;;;;;5003650;28;20048;-89
2024/02/24 03:07:00;;;;;;;4.70;2.13;;;;;;;;;;5003283;28;20050;-91
2024/02/24 03:09:27;;;;;;;2.53;1.88;;;;;;;;;;5003692;28;20105;-90
2024/02/24 03:11:55;;;;;;;3.53;2.22;;;;;;;;;;5007491;28;20046;-90
2024/02/24 03:14:22;;;;;;;7.10;2.35;;;;;;;;;;5011170;28;20054;-91
2024/02/24 03:16:49;;;;;;;5.00;2.25;;;;;;;;;;5003388;28;20046;-90
2024/02/24 03:19:17;;;;;;;2.60;1.67;;;;;;;;;;5009974;28;20092;-91
2024/02/24 03:21:45;;;;;;;3.28;1.90;;;;;;;;;;5006078;28;20046;-90
2024/02/24 03:24:12;;;;;;;2.67;1.95;;;;;;;;;;5003280;28;20109;-90
2024/02/24 03:26:39;;;;;;;4.22;2.40;;;;;;;;;;5007577;28;20045;-90
2024/02/24 03:29:07;;;;;;;2.45;2.00;;;;;;;;;;5008119;28;20083;-91
2024/02/24 03:31:34;;;;;;;2.47;1.75;;;;;;;;;;5023532;28;20057;-91
2024/02/24 03:34:02;;;;;;;2.95;1.75;;;;;;;;;;5006574;28;20061;-91
2024/02/24 03:36:29;;;;;;;2.55;1.70;;;;;;;;;;5009496;28;20476;-91
2024/02/24 03:38:57;;;;;;;3.35;1.75;;;;;;;;;;5009506;28;20069;-90
2024/02/24 03:41:25;;;;;;;6.05;2.25;;;;;;;;;;5014366;28;20045;-91
2024/02/24 03:43:53;;;;;;;2.00;1.42;;;;;;;;;;5009936;28;20172;-91
2024/02/24 03:46:20;;;;;;;3.08;1.80;;;;;;;;;;5008615;28;20057;-91
2024/02/24 03:48:48;;;;;;;4.78;1.70;;;;;;;;;;5020803;28;20058;-91
2024/02/24 03:51:15;;;;;;;1.88;1.77;;;;;;;;;;5040425;28;20029;-90
2024/02/24 03:53:43;;;;;;;2.90;2.50;;;;;;;;;;5010533;28;20088;-90
2024/02/24 03:56:10;;;;;;;2.42;1.77;;;;;;;;;;5013547;28;20096;-91
2024/02/24 03:58:38;;;;;;;9.93;6.35;;;;;;;;;;5005901;28;20414;-91
2024/02/24 04:01:05;;;;;;;4.95;3.47;;;;;;;;;;5003190;28;20108;-91
2024/02/24 04:03:32;;;;;;;2.28;2.08;;;;;;;;;;5010698;28;20052;-91
2024/02/24 04:06:00;;;;;;;2.58;1.63;;;;;;;;;;5009652;28;20487;-91
2024/02/24 04:08:27;;;;;;;2.20;1.50;;;;;;;;;;5013142;28;20080;-91
2024/02/24 04:10:54;;;;;;;3.92;1.90;;;;;;;;;;5005859;28;20080;-90
2024/02/24 04:13:22;;;;;;;4.82;1.63;;;;;;;;;;5008364;28;20083;-91
2024/02/24 04:15:50;;;;;;;4.10;1.50;;;;;;;;;;5009013;28;20045;-91
2024/02/24 04:18:17;;;;;;;2.47;1.60;;;;;;;;;;5000731;28;20128;-91
2024/02/24 04:20:45;;;;;;;1.30;1.30;;;;;;;;;;5013819;28;20068;-91
2024/02/24 04:23:13;;;;;;;1.52;1.35;;;;;;;;;;5004017;28;20057;-91
2024/02/24 04:25:41;;;;;;;2.22;1.55;;;;;;;;;;5002932;28;20045;-91
2024/02/24 04:28:08;;;;;;;1.45;1.27;;;;;;;;;;5016646;28;20152;-91
2024/02/24 04:30:37;;;;;;;1.63;1.52;;;;;;;;;;5008699;28;20563;-91
2024/02/24 04:33:05;;;;;;;3.08;1.40;;;;;;;;;;5008160;28;20072;-91
2024/02/24 04:35:33;;;;;;;4.95;1.33;;;;;;;;;;5004920;28;20081;-91
2024/02/24 04:38:05;;;;;;;2.42;1.48;;;;;;;;;;5009943;28;20069;-91
2024/02/24 04:40:35;;;;;;;1.27;1.17;;;;;;;;;;5012859;28;20104;-91
2024/02/24 04:43:02;;;;;;;2.55;1.30;;;;;;;;;;5005353;28;20476;-90
2024/02/24 04:45:29;;;;;;;4.18;1.38;;;;;;;;;;5005515;28;20050;-90
2024/02/24 04:47:57;;;;;;;1.73;1.15;;;;;;;;;;5004879;28;20049;-91
2024/02/24 04:50:24;;;;;;;2.22;1.30;;;;;;;;;;5007684;28;20080;-91
2024/02/24 04:52:52;;;;;;;3.35;1.30;;;;;;;;;;5008155;28;20071;-91
2024/02/24 04:55:19;;;;;;;3.95;1.42;;;;;;;;;;5013103;28;20092;-90
2024/02/24 04:57:46;;;;;;;2.10;1.80;;;;;;;;;;5005528;28;20457;-91
2024/02/24 05:00:14;;;;;;;4.22;1.48;;;;;;;;;;5005123;28;20056;-91
2024/02/24 05:02:41;;;;;;;5.00;1.70;;;;;;;;;;5006560;28;20486;-91
2024/02/24 05:05:11;;;;;;;2.20;1.77;;;;;;;;;;5024682;28;20053;-90
2024/02/24 05:07:38;;;;;;;2.22;1.30;;;;;;;;;;5018780;28;20049;-91
2024/02/24 05:10:06;;;;;;;4.45;1.40;;;;;;;;;;5007838;28;20569;-91
2024/02/24 05:12:34;;;;;;;2.47;1.20;;;;;;;;;;5016770;28;20045;-91
2024/02/24 05:15:01;;;;;;;4.55;1.38;;;;;;;;;;5008345;28;20054;-90
2024/02/24 05:17:29;;;;;;;1.45;1.23;;;;;;;;;;5012783;28;20049;-91
2024/02/24 05:19:56;;;;;;;3.78;1.40;;;;;;;;;;5000983;28;20060;-91
2024/02/24 05:22:23;;;;;;;1.42;1.30;;;;;;;;;;5021018;28;20108;-91
2024/02/24 05:24:50;;;;;;;3.83;1.55;;;;;;;;;;5011451;28;20057;-91
2024/02/24 05:27:19;;;;;;;2.28;1.45;;;;;;;;;;5016008;28;20056;-89
2024/02/24 05:29:47;;;;;;;3.10;1.50;;;;;;;;;;5007778;28;20073;-90
2024/02/24 05:32:16;;;;;;;4.57;1.60;;;;;;;;;;5007913;28;20072;-91
2024/02/24 05:34:44;;;;;;;2.28;1.85;;;;;;;;;;5009893;28;20057;-91
2024/02/24 05:37:12;;;;;;;2.90;1.77;;;;;;;;;;5012712;28;20116;-91
2024/02/24 05:39:39;;;;;;;4.47;1.85;;;;;;;;;;5004627;28;20572;-91
2024/02/24 05:42:06;;;;;;;2.47;1.80;;;;;;;;;;5016513;28;20482;-91
2024/02/24 05:44:34;;;;;;;2.03;1.67;;;;;;;;;;5009112;28;20053;-91
2024/02/24 05:47:01;;;;;;;2.38;1.75;;;;;;;;;;5007782;28;20054;-91
2024/02/24 05:49:29;;;;;;;3.85;1.52;;;;;;;;;;5007376;28;20049;-91
2024/02/24 05:51:56;;;;;;;6.55;1.95;;;;;;;;;;5007657;28;20124;-91
2024/02/24 05:54:24;;;;;;;3.13;1.80;;;;;;;;;;5012417;28;20046;-91
2024/02/24 05:56:51;;;;;;;3.42;1.52;;;;;;;;;;5004357;28;20108;-90
2024/02/24 05:59:19;;;;;;;1.73;1.60;;;;;;;;;;5006933;28;20054;-92
2024/02/24 06:01:47;;;;;;;4.60;1.80;;;;;;;;;;5009980;28;20057;-91
2024/02/24 06:04:16;;;;;;;1.65;1.33;;;;;;;;;;5018208;28;20552;-90
2024/02/24 06:06:46;;;;;;;2.33;2.03;;;;;;;;;;5013744;28;20053;-91
2024/02/24 06:09:13;;;;;;;4.88;1.77;;;;;;;;;;5007286;28;20499;-91
2024/02/24 06:11:40;;;;;;;6.03;2.30;;;;;;;;;;5002235;28;20092;-91
2024/02/24 06:14:08;;;;;;;7.25;2.20;;;;;;;;;;5005573;28;20054;-91
2024/02/24 06:16:35;;;;;;;2.97;2.13;;;;;;;;;;5005184;28;20107;-91
2024/02/24 06:19:03;;;;;;;2.65;2.15;;;;;;;;;;5023919;28;20050;-91
2024/02/24 06:21:31;;;;;;;2.03;1.90;;;;;;;;;;5036140;28;20054;-91
2024/02/24 06:23:59;;;;;;;4.22;2.05;;;;;;;;;;5015740;28;20050;-91
2024/02/24 06:26:26;;;;;;;5.25;2.50;;;;;;;;;;5007925;28;20054;-91
2024/02/24 06:28:56;;;;;;;4.90;2.13;;;;;;;;;;5014676;28;20076;-91
2024/02/24 06:31:23;;;;;;;3.47;2.13;;;;;;;;;;5015833;28;20400;-91
2024/02/24 06:33:50;;;;;;;5.50;2.50;;;;;;;;;;5007666;28;20045;-90
2024/02/24 06:36:17;;;;;;;3.63;1.92;;;;;;;;;;5009317;28;20050;-90
2024/02/24 06:38:45;;;;;;;2.50;2.30;;;;;;;;;;5011027;28;20053;-91
2024/02/24 06:41:14;;;;;;;2.10;1.50;;;;;;;;;;5002867;28;20466;-91
2024/02/24 06:43:41;;;;;;;3.28;1.95;;;;;;;;;;5010847;28;20050;-91
2024/02/24 06:46:09;;;;;;;2.45;1.73;;;;;;;;;;5011255;28;20510;-91
2024/02/24 06:48:37;;;;;;;3.20;2.10;;;;;;;;;;5013399;28;20050;-91
2024/02/24 06:51:04;;;;;;;3.17;1.83;;;;;;;;;;5007091;28;20460;-92
2024/02/24 06:53:32;;;;;;;3.85;1.92;;;;;;;;;;5007243;28;20112;-91
2024/02/24 06:56:04;;;;;;;5.13;1.85;;;;;;;;;;5003584;28;20104;-92
2024/02/24 06:58:33;;;;;;;4.38;2.35;;;;;;;;;;5026667;28;20066;-92
2024/02/24 07:01:00;;;;;;;3.53;2.03;;;;;;;;;;5010481;28;20545;-91
2024/02/24 07:03:29;;;;;;;2.15;1.80;;;;;;;;;;5010148;28;20064;-89
2024/02/24 07:05:57;;;;;;;4.90;2.20;;;;;;;;;;5010554;28;20045;-91
2024/02/24 07:08:25;;;;;;;6.47;2.90;;;;;;;;;;5006411;28;20380;-91
2024/02/24 07:10:52;;;;;;;5.93;3.30;;;;;;;;;;5014482;28;20061;-91
2024/02/24 07:13:19;;;;;;;9.38;4.93;;;;;;;;;;5009906;28;20051;-91
2024/02/24 07:15:46;;;;;;;10.75;4.65;;;;;;;;;;5011521;28;20491;-91
2024/02/24 07:18:14;;;;;;;8.50;4.35;;;;;;;;;;5016016;28;20053;-91
2024/02/24 07:20:41;;;;;;;8.35;4.55;;;;;;;;;;5009956;28;20042;-91
2024/02/24 07:23:08;;;;;;;9.02;4.47;;;;;;;;;;5008674;28;20053;-92
2024/02/24 07:25:35;;;;;;;8.45;3.70;;;;;;;;;;5006324;28;20041;-91
2024/02/24 07:28:03;;;;;;;5.35;2.80;;;;;;;;;;5007474;28;20453;-91
2024/02/24 07:30:30;;;;;;;5.97;2.67;;;;;;;;;;5021152;28;20119;-91
2024/02/24 07:32:57;;;;;;;5.30;2.40;;;;;;;;;;5024763;28;20064;-92
2024/02/24 07:35:25;;;;;;;3.25;2.35;;;;;;;;;;5038975;28;20066;-91
2024/02/24 07:37:53;;;;;;;3.00;2.70;;;;;;;;;;5018040;28;20085;-92
2024/02/24 07:40:20;;;;;;;8.35;3.20;;;;;;;;;;5010696;28;20054;-92
2024/02/24 07:42:49;;;;;;;6.20;3.35;;;;;;;;;;5014786;28;20054;-92
2024/02/24 07:45:16;;;;;;;66.57;37.28;;;;;;;;;;5008177;28;20046;-92
2024/02/24 07:47:43;;;;;;;16.17;10.63;;;;;;;;;;5014823;28;20131;-92
2024/02/24 07:50:11;;;;;;;7.22;4.70;;;;;;;;;;5004187;28;20046;-92
2024/02/24 07:52:39;;;;;;;8.45;6.55;;;;;;;;;;4999786;28;20052;-92
2024/02/24 07:55:07;;;;;;;8.90;5.75;;;;;;;;;;5022536;28;20060;-92
2024/02/24 07:57:34;;;;;;;5.28;4.25;;;;;;;;;;5006081;28;20057;-92
2024/02/24 08:00:02;;;;;;;7.13;4.47;;;;;;;;;;5006119;28;20057;-92
2024/02/24 08:02:29;;;;;;;5.03;3.30;;;;;;;;;;5009117;28;20111;-92
2024/02/24 08:04:56;;;;;;;8.27;4.82;;;;;;;;;;5017120;28;20387;-92
2024/02/24 08:07:23;;;;;;;4.40;4.00;;;;;;;;;;5017021;28;20108;-91
2024/02/24 08:09:51;;;;;;;6.93;5.13;;;;;;;;;;5008671;28;20091;-92
2024/02/24 08:12:18;;;;;;;6.38;4.85;;;;;;;;;;5008991;28;20056;-92
2024/02/24 08:14:45;;;;;;;7.55;4.32;;;;;;;;;;5018661;28;20053;-93
2024/02/24 08:17:13;;;;;;;5.35;4.65;;;;;;;;;;5014318;28;20053;-93
2024/02/24 08:19:44;;;;;;;6.32;4.72;;;;;;;;;;5001707;28;20046;-93
2024/02/24 08:22:11;;;;;;;6.10;3.53;;;;;;;;;;5020945;28;20053;-92
2024/02/24 08:24:38;;;;;;;8.95;7.47;;;;;;;;;;5008955;28;20104;-92
2024/02/24 08:27:06;;;;;;;9.18;5.15;;;;;;;;;;5007953;28;20108;-92
2024/02/24 08:29:33;;;;;;;7.15;5.22;;;;;;;;;;5004822;28;20054;-92
2024/02/24 08:32:00;;;;;;;6.22;5.00;;;;;;;;;;5005164;28;20054;-92
2024/02/24 08:34:27;;;;;;;5.95;5.15;;;;;;;;;;5016797;28;20524;-91
2024/02/24 08:36:55;;;;;;;8.27;5.72;;;;;;;;;;5008607;28;20053;-92
2024/02/24 08:39:22;;;;;;;8.57;5.55;;;;;;;;;;5005565;28;20053;-92
2024/02/24 08:41:49;;;;;;;6.65;5.97;;;;;;;;;;5005978;28;20096;-92
2024/02/24 08:44:16;;;;;;;6.18;4.80;;;;;;;;;;5016284;28;20081;-92
2024/02/24 08:46:43;;;;;;;7.72;3.88;;;;;;;;;;5012530;28;20052;-92
2024/02/24 08:49:11;;;;;;;4.72;3.85;;;;;;;;;;5023921;28;20571;-91
2024/02/24 08:51:38;;;;;;;3.13;2.83;;;;;;;;;;5012325;28;20108;-92
2024/02/24 08:54:05;;;;;;;2.58;2.33;;;;;;;;;;5013557;28;20079;-92
2024/02/24 08:56:32;;;;;;;2.72;2.53;;;;;;;;;;5012176;28;20081;-92
2024/02/24 08:59:00;;;;;;;1.75;1.65;;;;;;;;;;5012835;28;20061;-92
2024/02/24 09:01:28;;;;;;;3.20;2.00;;;;;;;;;;5013185;28;20077;-92
2024/02/24 09:03:56;;;;;;;1.88;1.77;;;;;;;;;;5000944;28;20081;-91
2024/02/24 09:06:24;;;;;;;1.58;1.48;;;;;;;;;;5012840;28;20056;-91
2024/02/24 09:08:51;;;;;;;2.17;1.98;;;;;;;;;;5006314;28;20060;-91
2024/02/24 09:11:18;;;;;;;25.20;13.23;;;;;;;;;;5007136;28;20053;-92
2024/02/24 09:13:47;;;;;;;26.33;14.05;;;;;;;;;;5008021;28;20049;-92
2024/02/24 09:16:17;;;;;;;25.30;11.95;;;;;;;;;;5006747;28;20049;-91
2024/02/24 09:18:44;;;;;;;28.77;10.57;;;;;;;;;;5022029;28;20049;-92
2024/02/24 09:21:12;;;;;;;6.72;4.28;;;;;;;;;;5006173;28;20080;-91
2024/02/24 09:23:39;;;;;;;8.35;5.82;;;;;;;;;;5007967;28;20049;-91
2024/02/24 09:26:07;;;;;;;5.45;2.50;;;;;;;;;;5007952;28;20538;-91
2024/02/24 09:28:35;;;;;;;4.90;3.58;;;;;;;;;;5011367;28;20065;-92
2024/02/24 09:31:02;;;;;;;6.40;4.50;;;;;;;;;;5012419;28;20099;-91
2024/02/24 09:33:29;;;;;;;17.75;9.32;;;;;;;;;;5007763;28;20053;-91
2024/02/24 09:35:57;;;;;;;69.93;31.73;;;;;;;;;;5007758;28;20049;-91
2024/02/24 09:38:24;;;;;;;33.60;16.83;;;;;;;;;;5007389;28;20561;-92
2024/02/24 09:40:51;;;;;;;38.80;21.20;;;;;;;;;;5008397;28;20056;-91
2024/02/24 09:43:19;;;;;;;26.27;14.63;;;;;;;;;;5011045;28;20093;-91
2024/02/24 09:45:47;;;;;;;12.82;6.72;;;;;;;;;;5020076;28;20060;-91
2024/02/24 09:48:15;;;;;;;4.90;3.58;;;;;;;;;;5019589;28;20057;-91
2024/02/24 09:50:42;;;;;;;11.05;7.40;;;;;;;;;;5011906;28;20053;-90
2024/02/24 09:53:09;;;;;;;7.90;6.00;;;;;;;;;;5016201;28;20049;-90
2024/02/24 09:55:37;;;;;;;10.77;9.63;;;;;;;;;;5008175;28;20050;-91
2024/02/24 09:58:06;;;;;;;5.05;2.90;;;;;;;;;;5016657;28;20099;-91
2024/02/24 10:00:33;;;;;;;4.25;2.53;;;;;;;;;;5012907;28;20049;-91
2024/02/24 10:03:01;;;;;;;1.70;1.50;;;;;;;;;;5024583;28;20555;-91
2024/02/24 10:05:28;;;;;;;3.42;2.00;;;;;;;;;;5008392;28;20108;-90
2024/02/24 10:07:55;;;;;;;2.72;2.03;;;;;;;;;;5007245;28;20042;-91
2024/02/24 10:10:28;;;;;;;4.95;2.95;;;;;;;;;;5011434;28;20482;-91
2024/02/24 10:12:56;;;;;;;3.67;2.58;;;;;;;;;;5011727;28;20050;-91
2024/02/24 10:15:24;;;;;;;5.57;2.67;;;;;;;;;;5010815;28;20049;-90
2024/02/24 10:17:57;;;;;;;2.70;2.10;;;;;;;;;;5011098;28;20516;-91
2024/02/24 10:20:24;;;;;;;2.08;0.93;;;;;;;;;;5018984;28;20053;-90
2024/02/24 10:22:51;;;;;;;1.67;1.00;;;;;;;;;;5015712;28;20045;-91
2024/02/24 10:25:19;;;;;;;1.30;0.90;;;;;;;;;;5009910;28;20201;-91
2024/02/24 10:27:47;;;;;;;1.02;0.93;;;;;;;;;;5010659;28;20049;-90
2024/02/24 10:30:14;;;;;;;2.60;1.88;;;;;;;;;;5010331;28;20112;-89
2024/02/24 10:32:42;;;;;;;2.42;0.68;;;;;;;;;;5018877;28;20076;-90
2024/02/24 10:35:09;;;;;;;1.08;0.80;;;;;;;;;;5010972;28;20053;-90
2024/02/24 10:37:37;;;;;;;2.15;0.60;;;;;;;;;;5015411;28;20149;-90
2024/02/24 10:40:24;;;;;;;2.55;1.33;;;;;;;;;;5010614;28;20079;-90
2024/02/24 10:42:52;;;;;;;0.77;0.77;;;;;;;;;;5010560;28;20053;-91
2024/02/24 10:45:20;;;;;;;0.98;0.80;;;;;;;;;;5008109;28;20045;-91
2024/02/24 10:47:47;;;;;;;1.20;0.90;;;;;;;;;;5007040;28;20054;-90
2024/02/24 10:50:18;;;;;;;2.08;0.60;;;;;;;;;;5013130;28;20077;-89
2024/02/24 10:52:47;;;;;;;1.08;0.70;;;;;;;;;;5007831;28;20069;-90
2024/02/24 10:55:15;;;;;;;1.48;0.98;;;;;;;;;;5009440;28;20140;-90
2024/02/24 10:57:42;;;;;;;1.23;0.90;;;;;;;;;;5013068;28;20471;-90
2024/02/24 11:00:25;;;;;;;0.60;0.60;;;;;;;;;;5008154;28;20470;-90
2024/02/24 11:02:52;;;;;;;1.00;0.77;;;;;;;;;;5011598;28;20136;-89
2024/02/24 11:05:20;;;;;;;0.68;0.68;;;;;;;;;;5009744;28;20061;-90
2024/02/24 11:07:47;;;;;;;1.15;0.80;;;;;;;;;;5010264;28;20065;-90
2024/02/24 11:10:21;;;;;;;0.90;0.90;;;;;;;;;;5014822;28;20064;-90
2024/02/24 11:12:53;;;;;;;6.70;1.10;;;;;;;;;;5007175;28;20141;-92
2024/02/24 11:15:23;;;;;;;0.95;0.80;;;;;;;;;;5009553;28;20076;-90
2024/02/24 11:17:52;;;;;;;0.80;0.80;;;;;;;;;;5023759;28;20046;-89
2024/02/24 11:20:38;;;;;;;0.80;0.65;;;;;;;;;;5015969;28;20110;-89
2024/02/24 11:23:26;;;;;;;1.42;0.88;;;;;;;;;;5007135;28;20038;-90
2024/02/24 11:26:12;;;;;;;0.85;0.50;;;;;;;;;;5010780;28;20054;-90
2024/02/24 11:29:01;;;;;;;0.80;0.43;;;;;;;;;;5020020;28;20046;-89
2024/02/24 11:31:35;;;;;;;0.47;0.47;;;;;;;;;;5006285;28;20065;-91
2024/02/24 11:34:07;;;;;;;0.93;0.63;;;;;;;;;;5006298;28;20050;-90
2024/02/24 11:36:35;;;;;;;0.55;0.55;;;;;;;;;;5009475;28;20107;-88
2024/02/24 11:39:03;;;;;;;0.60;0.40;;;;;;;;;;5001241;28;20054;-89
2024/02/24 11:41:30;;;;;;;0.93;0.50;;;;;;;;;;5009433;28;20041;-89
2024/02/24 11:43:58;;;;;;;1.75;0.65;;;;;;;;;;5009358;28;20091;-90
2024/02/24 11:46:26;;;;;;;0.70;0.70;;;;;;;;;;5009494;28;20119;-89
2024/02/24 11:48:54;;;;;;;2.50;0.80;;;;;;;;;;5010472;28;20119;-89
2024/02/24 11:51:25;;;;;;;1.92;1.02;;;;;;;;;;5017172;28;20088;-88
2024/02/24 11:53:52;;;;;;;1.48;0.80;;;;;;;;;;5010360;28;20054;-89
2024/02/24 11:56:20;;;;;;;0.43;0.43;;;;;;;;;;5014044;28;20111;-89
2024/02/24 11:58:47;;;;;;;0.40;0.40;;;;;;;;;;5005734;28;20056;-89
2024/02/24 12:01:15;;;;;;;1.67;0.80;;;;;;;;;;5015346;28;20049;-88
2024/02/24 12:03:49;;;;;;;5.20;0.70;;;;;;;;;;5011850;28;20050;-90
2024/02/24 12:06:17;;;;;;;1.52;0.70;;;;;;;;;;5007819;28;20092;-88
2024/02/24 12:08:44;;;;;;;6.75;0.90;;;;;;;;;;5008957;28;20053;-89
2024/02/24 12:11:12;;;;;;;1.23;0.60;;;;;;;;;;5009065;28;20056;-91
2024/02/24 12:13:39;;;;;;;1.95;0.65;;;;;;;;;;5003714;28;20049;-88
2024/02/24 12:16:07;;;;;;;5.43;0.60;;;;;;;;;;5030232;28;20473;-89
2024/02/24 12:18:35;;;;;;;0.65;0.65;;;;;;;;;;5005683;28;20406;-89
2024/02/24 12:21:02;;;;;;;2.92;0.50;;;;;;;;;;5005703;28;20060;-90
2024/02/24 12:23:31;;;;;;;3.30;0.82;;;;;;;;;;5012876;28;20073;-88
2024/02/24 12:26:10;;;;;;;0.57;0.57;;;;;;;;;;5013321;28;20441;-88
2024/02/24 12:28:41;;;;;;;0.50;0.40;;;;;;;;;;5006140;28;20509;-90
2024/02/24 12:31:10;;;;;;;0.57;0.57;;;;;;;;;;5020469;28;20072;-88
2024/02/24 12:33:41;;;;;;;0.40;0.40;;;;;;;;;;5007573;28;20108;-88
2024/02/24 12:36:13;;;;;;;0.47;0.47;;;;;;;;;;5013603;28;20089;-91
2024/02/24 12:38:40;;;;;;;2.90;0.65;;;;;;;;;;5011136;28;20046;-90
2024/02/24 12:41:09;;;;;;;4.28;0.43;;;;;;;;;;5014117;28;20072;-89
2024/02/24 12:43:38;;;;;;;0.80;0.73;;;;;;;;;;5011521;28;20490;-89
2024/02/24 12:46:06;;;;;;;1.38;0.45;;;;;;;;;;5013147;28;20045;-89
2024/02/24 12:48:33;;;;;;;1.55;0.40;;;;;;;;;;5004607;28;20045;-88
2024/02/24 12:51:01;;;;;;;0.88;0.40;;;;;;;;;;5004889;28;20065;-88
2024/02/24 12:53:29;;;;;;;0.75;0.73;;;;;;;;;;5016813;28;20486;-88
2024/02/24 12:55:56;;;;;;;0.50;0.40;;;;;;;;;;5016784;28;20057;-88
2024/02/24 12:58:23;;;;;;;0.50;0.50;;;;;;;;;;5016188;28;20041;-87
2024/02/24 13:00:56;;;;;;;0.73;0.70;;;;;;;;;;5008086;28;20082;-88
2024/02/24 13:03:23;;;;;;;0.43;0.43;;;;;;;;;;5000080;28;20069;-89
2024/02/24 13:05:51;;;;;;;0.47;0.35;;;;;;;;;;5008358;28;20399;-89
2024/02/24 13:08:18;;;;;;;0.65;0.65;;;;;;;;;;5007862;28;20057;-88
2024/02/24 13:10:46;;;;;;;1.50;0.70;;;;;;;;;;5009856;28;20054;-87
2024/02/24 13:13:13;;;;;;;0.40;0.40;;;;;;;;;;5010068;28;20143;-89
2024/02/24 13:15:40;;;;;;;0.50;0.50;;;;;;;;;;5009914;28;20057;-90
2024/02/24 13:18:08;;;;;;;0.28;0.28;;;;;;;;;;5007476;28;20050;-88
2024/02/24 13:20:37;;;;;;;1.13;0.35;;;;;;;;;;5011138;28;20049;-88
2024/02/24 13:23:05;;;;;;;0.65;0.40;;;;;;;;;;5004456;28;20058;-88
2024/02/24 13:25:32;;;;;;;0.38;0.38;;;;;;;;;;5004549;28;20053;-88
2024/02/24 13:28:02;;;;;;;0.70;0.43;;;;;;;;;;5003919;28;20045;-88
2024/02/24 13:30:29;;;;;;;1.02;0.32;;;;;;;;;;5000039;28;20141;-90
2024/02/24 13:32:57;;;;;;;0.15;0.15;;;;;;;;;;5008562;28;20050;-89
2024/02/24 13:35:24;;;;;;;0.68;0.40;;;;;;;;;;5012115;28;20057;-89
2024/02/24 13:37:51;;;;;;;0.20;0.20;;;;;;;;;;5007793;28;20586;-89
2024/02/24 13:40:21;;;;;;;0.50;0.20;;;;;;;;;;5003367;28;20064;-90
2024/02/24 13:42:48;;;;;;;0.68;0.30;;;;;;;;;;5000225;28;20501;-89
2024/02/24 13:45:16;;;;;;;0.40;0.40;;;;;;;;;;5024688;28;20080;-90
2024/02/24 13:47:43;;;;;;;0.60;0.40;;;;;;;;;;5008235;28;20050;-88
2024/02/24 13:50:11;;;;;;;0.32;0.32;;;;;;;;;;5006127;28;20053;-87
2024/02/24 13:52:38;;;;;;;0.22;0.22;;;;;;;;;;5009389;28;20045;-88
2024/02/24 13:55:06;;;;;;;0.60;0.20;;;;;;;;;;5006747;28;20437;-88
2024/02/24 13:57:33;;;;;;;2.35;0.22;;;;;;;;;;5008543;28;20055;-87
2024/02/24 14:00:00;;;;;;;0.95;0.30;;;;;;;;;;5007332;28;20077;-87
2024/02/24 14:02:30;;;;;;;0.47;0.30;;;;;;;;;;5011881;28;20050;-89
2024/02/24 14:04:57;;;;;;;0.50;0.50;;;;;;;;;;5004101;28;20046;-88
2024/02/24 14:07:24;;;;;;;0.20;0.20;;;;;;;;;;5006801;28;20049;-87
2024/02/24 14:09:51;;;;;;;0.28;0.25;;;;;;;;;;5007674;28;20104;-87
2024/02/24 14:12:18;;;;;;;0.40;0.40;;;;;;;;;;5005028;28;20076;-86
2024/02/24 14:14:46;;;;;;;0.20;0.20;;;;;;;;;;5004115;28;20556;-88
2024/02/24 14:17:13;;;;;;;0.30;0.30;;;;;;;;;;5010426;28;20052;-87
2024/02/24 14:19:41;;;;;;;0.70;0.25;;;;;;;;;;5009311;28;20050;-88
2024/02/24 14:22:08;;;;;;;0.20;0.20;;;;;;;;;;5007262;28;20061;-89
2024/02/24 14:24:35;;;;;;;0.15;0.10;;;;;;;;;;5013730;28;20050;-87
2024/02/24 14:27:02;;;;;;;1.50;0.38;;;;;;;;;;5007378;28;20483;-88
2024/02/24 14:29:30;;;;;;;0.75;0.75;;;;;;;;;;5018438;28;20107;-88
2024/02/24 14:31:57;;;;;;;0.30;0.30;;;;;;;;;;5018754;28;20050;-89
2024/02/24 14:34:25;;;;;;;0.20;0.08;;;;;;;;;;5018567;28;20217;-88
2024/02/24 14:36:53;;;;;;;0.20;0.10;;;;;;;;;;5010354;28;20053;-86
2024/02/24 14:39:21;;;;;;;0.08;0.08;;;;;;;;;;5007980;28;20410;-87
2024/02/24 14:41:48;;;;;;;0.10;0.10;;;;;;;;;;5007176;28;20050;-87
2024/02/24 14:44:19;;;;;;;0.15;0.15;;;;;;;;;;5009586;28;20061;-86
2024/02/24 14:46:56;;;;;;;0.20;0.20;;;;;;;;;;5028088;28;20061;-88
2024/02/24 14:49:24;;;;;;;0.20;0.20;;;;;;;;;;5010144;28;20045;-87